sensor_id;sensor_type;location;lat;lon;timestamp;P1;durP1;ratioP1;P2;durP2;ratioP2
56631;SDS011;42503;39.928;-75.152;2023-09-08T00:09:24;10.73;;;9.50;;
56631;SDS011;42503;39.928;-75.152;2023-09-08T00:19:25;13.95;;;9.80;;
56631;SDS011;42503;39.928;-75.152;2023-09-08T00:29:27;10.15;;;9.15;;
56631;SDS011;42503;39.928;-75.152;2023-09-08T00:39:28;11.02;;;8.85;;
56631;SDS011;42503;39.928;-75.152;2023-09-08T00:49:29;11.93;;;8.45;;
56631;SDS011;42503;39.928;-75.152;2023-09-08T00:59:43;9.20;;;8.23;;
56631;SDS011;42503;39.928;-75.152;2023-09-08T01:09:45;12.95;;;7.20;;
56631;SDS011;42503;39.928;-75.152;2023-09-08T01:19:48;8.10;;;6.97;;
56631;SDS011;42503;39.928;-75.152;2023-09-08T01:29:53;8.27;;;7.05;;
56631;SDS011;42503;39.928;-75.152;2023-09-08T01:39:55;7.88;;;6.43;;
56631;SDS011;42503;39.928;-75.152;2023-09-08T01:49:56;9.77;;;7.90;;
56631;SDS011;42503;39.928;-75.152;2023-09-08T01:59:58;8.70;;;7.32;;
56631;SDS011;42503;39.928;-75.152;2023-09-08T02:09:59;8.45;;;6.70;;
56631;SDS011;42503;39.928;-75.152;2023-09-08T02:20:06;9.00;;;7.07;;
56631;SDS011;42503;39.928;-75.152;2023-09-08T02:30:08;10.00;;;7.15;;
56631;SDS011;42503;39.928;-75.152;2023-09-08T02:40:10;9.50;;;7.07;;
56631;SDS011;42503;39.928;-75.152;2023-09-08T02:50:12;7.40;;;6.70;;
56631;SDS011;42503;39.928;-75.152;2023-09-08T03:00:13;7.35;;;6.63;;
56631;SDS011;42503;39.928;-75.152;2023-09-08T03:10:15;6.60;;;5.93;;
56631;SDS011;42503;39.928;-75.152;2023-09-08T03:20:19;7.90;;;6.00;;
56631;SDS011;42503;39.928;-75.152;2023-09-08T03:30:21;8.75;;;6.57;;
56631;SDS011;42503;39.928;-75.152;2023-09-08T03:40:22;10.88;;;6.25;;
56631;SDS011;42503;39.928;-75.152;2023-09-08T03:50:23;7.97;;;5.78;;
56631;SDS011;42503;39.928;-75.152;2023-09-08T04:00:25;6.60;;;5.90;;
56631;SDS011;42503;39.928;-75.152;2023-09-08T04:10:26;8.70;;;6.28;;
56631;SDS011;42503;39.928;-75.152;2023-09-08T04:20:27;9.20;;;5.82;;
56631;SDS011;42503;39.928;-75.152;2023-09-08T04:30:29;7.30;;;5.90;;
56631;SDS011;42503;39.928;-75.152;2023-09-08T04:40:30;8.20;;;5.93;;
56631;SDS011;42503;39.928;-75.152;2023-09-08T04:50:32;6.63;;;5.93;;
56631;SDS011;42503;39.928;-75.152;2023-09-08T05:00:33;6.50;;;5.80;;
56631;SDS011;42503;39.928;-75.152;2023-09-08T05:10:35;6.57;;;5.53;;
56631;SDS011;42503;39.928;-75.152;2023-09-08T05:20:36;5.75;;;5.25;;
56631;SDS011;42503;39.928;-75.152;2023-09-08T05:30:37;7.35;;;5.18;;
56631;SDS011;42503;39.928;-75.152;2023-09-08T05:40:42;6.78;;;4.78;;
56631;SDS011;42503;39.928;-75.152;2023-09-08T05:50:43;5.30;;;4.80;;
56631;SDS011;42503;39.928;-75.152;2023-09-08T06:00:45;4.80;;;4.40;;
56631;SDS011;42503;39.928;-75.152;2023-09-08T06:10:46;5.07;;;4.65;;
56631;SDS011;42503;39.928;-75.152;2023-09-08T06:20:51;5.45;;;4.95;;
56631;SDS011;42503;39.928;-75.152;2023-09-08T06:30:53;6.47;;;4.60;;
56631;SDS011;42503;39.928;-75.152;2023-09-08T06:40:55;5.93;;;4.32;;
56631;SDS011;42503;39.928;-75.152;2023-09-08T06:50:56;4.72;;;4.30;;
56631;SDS011;42503;39.928;-75.152;2023-09-08T07:01:00;5.30;;;4.03;;
56631;SDS011;42503;39.928;-75.152;2023-09-08T07:11:01;5.30;;;4.78;;
56631;SDS011;42503;39.928;-75.152;2023-09-08T07:21:03;5.65;;;4.93;;
56631;SDS011;42503;39.928;-75.152;2023-09-08T07:31:05;4.95;;;4.22;;
56631;SDS011;42503;39.928;-75.152;2023-09-08T07:41:07;4.15;;;3.75;;
56631;SDS011;42503;39.928;-75.152;2023-09-08T07:51:08;4.63;;;4.22;;
56631;SDS011;42503;39.928;-75.152;2023-09-08T08:01:10;4.80;;;3.97;;
56631;SDS011;42503;39.928;-75.152;2023-09-08T08:11:13;4.43;;;4.03;;
56631;SDS011;42503;39.928;-75.152;2023-09-08T08:21:16;5.20;;;4.60;;
56631;SDS011;42503;39.928;-75.152;2023-09-08T08:31:17;6.57;;;4.30;;
56631;SDS011;42503;39.928;-75.152;2023-09-08T08:41:22;5.32;;;4.10;;
56631;SDS011;42503;39.928;-75.152;2023-09-08T08:51:23;5.70;;;4.70;;
56631;SDS011;42503;39.928;-75.152;2023-09-08T09:01:25;6.05;;;4.82;;
56631;SDS011;42503;39.928;-75.152;2023-09-08T09:11:27;5.25;;;4.75;;
56631;SDS011;42503;39.928;-75.152;2023-09-08T09:21:41;5.75;;;5.07;;
56631;SDS011;42503;39.928;-75.152;2023-09-08T09:31:53;7.03;;;5.30;;
56631;SDS011;42503;39.928;-75.152;2023-09-08T09:41:56;8.23;;;5.15;;
56631;SDS011;42503;39.928;-75.152;2023-09-08T09:51:58;7.50;;;5.90;;
56631;SDS011;42503;39.928;-75.152;2023-09-08T10:01:59;5.85;;;5.10;;
56631;SDS011;42503;39.928;-75.152;2023-09-08T10:12:04;5.97;;;5.40;;
56631;SDS011;42503;39.928;-75.152;2023-09-08T10:22:06;7.00;;;5.32;;
56631;SDS011;42503;39.928;-75.152;2023-09-08T10:32:14;6.05;;;5.45;;
56631;SDS011;42503;39.928;-75.152;2023-09-08T10:52:18;8.52;;;6.18;;
56631;SDS011;42503;39.928;-75.152;2023-09-08T11:12:33;12.13;;;7.20;;
56631;SDS011;42503;39.928;-75.152;2023-09-08T11:22:35;11.50;;;6.43;;
56631;SDS011;42503;39.928;-75.152;2023-09-08T11:32:41;13.02;;;7.00;;
56631;SDS011;42503;39.928;-75.152;2023-09-08T11:42:43;10.07;;;6.90;;
56631;SDS011;42503;39.928;-75.152;2023-09-08T11:52:46;9.60;;;6.65;;
56631;SDS011;42503;39.928;-75.152;2023-09-08T12:02:49;10.85;;;6.35;;
56631;SDS011;42503;39.928;-75.152;2023-09-08T12:12:54;6.90;;;5.82;;
56631;SDS011;42503;39.928;-75.152;2023-09-08T12:22:59;9.65;;;6.13;;
56631;SDS011;42503;39.928;-75.152;2023-09-08T12:33:15;9.10;;;6.55;;
56631;SDS011;42503;39.928;-75.152;2023-09-08T12:43:18;7.72;;;6.40;;
56631;SDS011;42503;39.928;-75.152;2023-09-08T12:53:20;7.97;;;7.00;;
56631;SDS011;42503;39.928;-75.152;2023-09-08T13:03:23;7.50;;;6.28;;
56631;SDS011;42503;39.928;-75.152;2023-09-08T13:13:24;9.55;;;7.25;;
56631;SDS011;42503;39.928;-75.152;2023-09-08T13:23:25;7.43;;;6.68;;
56631;SDS011;42503;39.928;-75.152;2023-09-08T13:33:27;7.97;;;6.65;;
56631;SDS011;42503;39.928;-75.152;2023-09-08T13:43:28;9.65;;;7.28;;
56631;SDS011;42503;39.928;-75.152;2023-09-08T13:53:33;11.98;;;6.47;;
56631;SDS011;42503;39.928;-75.152;2023-09-08T14:03:35;6.90;;;6.30;;
56631;SDS011;42503;39.928;-75.152;2023-09-08T14:13:39;7.68;;;6.60;;
56631;SDS011;42503;39.928;-75.152;2023-09-08T14:23:41;7.32;;;6.63;;
56631;SDS011;42503;39.928;-75.152;2023-09-08T14:33:42;7.63;;;6.68;;
56631;SDS011;42503;39.928;-75.152;2023-09-08T14:43:44;7.45;;;6.75;;
56631;SDS011;42503;39.928;-75.152;2023-09-08T14:53:45;8.50;;;7.60;;
56631;SDS011;42503;39.928;-75.152;2023-09-08T15:03:46;8.82;;;7.78;;
56631;SDS011;42503;39.928;-75.152;2023-09-08T15:13:48;8.65;;;7.75;;
56631;SDS011;42503;39.928;-75.152;2023-09-08T15:23:49;9.43;;;8.52;;
56631;SDS011;42503;39.928;-75.152;2023-09-08T15:33:50;10.05;;;9.05;;
56631;SDS011;42503;39.928;-75.152;2023-09-08T15:43:52;9.73;;;8.73;;
56631;SDS011;42503;39.928;-75.152;2023-09-08T15:53:54;10.45;;;9.45;;
56631;SDS011;42503;39.928;-75.152;2023-09-08T16:03:55;10.32;;;9.20;;
56631;SDS011;42503;39.928;-75.152;2023-09-08T16:24:02;11.85;;;10.68;;
56631;SDS011;42503;39.928;-75.152;2023-09-08T16:34:04;11.70;;;10.50;;
56631;SDS011;42503;39.928;-75.152;2023-09-08T16:44:05;11.55;;;10.02;;
56631;SDS011;42503;39.928;-75.152;2023-09-08T16:54:07;10.80;;;9.70;;
56631;SDS011;42503;39.928;-75.152;2023-09-08T17:04:11;12.32;;;11.13;;
56631;SDS011;42503;39.928;-75.152;2023-09-08T17:14:15;11.85;;;10.63;;
56631;SDS011;42503;39.928;-75.152;2023-09-08T17:24:16;12.05;;;10.90;;
56631;SDS011;42503;39.928;-75.152;2023-09-08T17:34:21;12.60;;;11.35;;
56631;SDS011;42503;39.928;-75.152;2023-09-08T17:44:22;12.77;;;11.57;;
56631;SDS011;42503;39.928;-75.152;2023-09-08T17:54:24;12.27;;;11.05;;
56631;SDS011;42503;39.928;-75.152;2023-09-08T18:04:25;12.05;;;10.88;;
56631;SDS011;42503;39.928;-75.152;2023-09-08T18:14:26;12.48;;;11.27;;
56631;SDS011;42503;39.928;-75.152;2023-09-08T18:24:28;11.43;;;10.23;;
56631;SDS011;42503;39.928;-75.152;2023-09-08T18:34:30;11.80;;;10.65;;
56631;SDS011;42503;39.928;-75.152;2023-09-08T18:44:31;11.90;;;10.70;;
56631;SDS011;42503;39.928;-75.152;2023-09-08T18:54:40;11.10;;;10.10;;
56631;SDS011;42503;39.928;-75.152;2023-09-08T19:04:41;11.43;;;10.32;;
56631;SDS011;42503;39.928;-75.152;2023-09-08T19:14:43;11.02;;;10.02;;
56631;SDS011;42503;39.928;-75.152;2023-09-08T19:24:44;11.15;;;10.15;;
56631;SDS011;42503;39.928;-75.152;2023-09-08T19:34:46;10.88;;;9.32;;
56631;SDS011;42503;39.928;-75.152;2023-09-08T19:44:47;9.57;;;8.57;;
56631;SDS011;42503;39.928;-75.152;2023-09-08T19:54:49;10.35;;;9.35;;
56631;SDS011;42503;39.928;-75.152;2023-09-08T20:04:50;10.05;;;9.05;;
56631;SDS011;42503;39.928;-75.152;2023-09-08T20:14:51;9.85;;;8.90;;
56631;SDS011;42503;39.928;-75.152;2023-09-08T20:24:53;10.43;;;9.43;;
56631;SDS011;42503;39.928;-75.152;2023-09-08T20:34:54;11.00;;;9.25;;
56631;SDS011;42503;39.928;-75.152;2023-09-08T20:44:58;10.35;;;9.00;;
56631;SDS011;42503;39.928;-75.152;2023-09-08T20:55:00;10.95;;;8.93;;
56631;SDS011;42503;39.928;-75.152;2023-09-08T21:05:04;10.95;;;9.75;;
56631;SDS011;42503;39.928;-75.152;2023-09-08T21:15:06;14.35;;;10.63;;
56631;SDS011;42503;39.928;-75.152;2023-09-08T21:25:07;11.63;;;10.35;;
56631;SDS011;42503;39.928;-75.152;2023-09-08T21:35:09;14.18;;;11.15;;
56631;SDS011;42503;39.928;-75.152;2023-09-08T21:45:10;14.43;;;11.82;;
56631;SDS011;42503;39.928;-75.152;2023-09-08T21:55:12;13.57;;;11.85;;
56631;SDS011;42503;39.928;-75.152;2023-09-08T22:05:17;13.77;;;12.35;;
56631;SDS011;42503;39.928;-75.152;2023-09-08T22:15:18;13.35;;;11.02;;
56631;SDS011;42503;39.928;-75.152;2023-09-08T22:25:19;16.58;;;12.18;;
56631;SDS011;42503;39.928;-75.152;2023-09-08T22:35:22;12.88;;;10.80;;
56631;SDS011;42503;39.928;-75.152;2023-09-08T22:45:23;11.98;;;10.52;;
56631;SDS011;42503;39.928;-75.152;2023-09-08T22:55:25;12.00;;;10.80;;
56631;SDS011;42503;39.928;-75.152;2023-09-08T23:05:29;12.13;;;10.02;;
56631;SDS011;42503;39.928;-75.152;2023-09-08T23:15:30;12.13;;;10.82;;
56631;SDS011;42503;39.928;-75.152;2023-09-08T23:25:32;12.52;;;11.23;;
56631;SDS011;42503;39.928;-75.152;2023-09-08T23:35:34;13.50;;;12.10;;
56631;SDS011;42503;39.928;-75.152;2023-09-08T23:45:35;13.07;;;11.20;;
56631;SDS011;42503;39.928;-75.152;2023-09-08T23:55:37;12.30;;;10.85;;
